Time;durP1;ratioP1;P1;durP2;ratioP2;P2;SDS_P1;SDS_P2;PMS_P1;PMS_P2;Temp;Humidity;BMP_temperature;BMP_pressure;BME280_temperature;BME280_humidity;BME280_pressure;Samples;Min_cycle;Max_cycle;Signal;HPM_P1;HPM_P2
2023/12/06 00:00:09;;;;;;;;;;;2.70;99.90;;;;;;5107722;27;19919;-74
2023/12/06 00:02:34;;;;;;;;;;;2.40;99.90;;;;;;5093373;27;19956;-74
2023/12/06 00:05:00;;;;;;;;;;;2.70;99.90;;;;;;5113151;27;20293;-75
2023/12/06 00:07:26;;;;;;;;;;;2.40;99.90;;;;;;5101458;27;19928;-74
2023/12/06 00:09:51;;;;;;;;;;;2.40;99.90;;;;;;5128196;27;19935;-75
2023/12/06 00:12:17;;;;;;;;;;;2.40;99.90;;;;;;5100284;27;20590;-75
2023/12/06 00:14:42;;;;;;;;;;;2.40;99.90;;;;;;5110977;27;19934;-75
2023/12/06 00:17:08;;;;;;;;;;;2.40;99.90;;;;;;5105191;27;19964;-75
2023/12/06 00:19:34;;;;;;;;;;;2.50;99.90;;;;;;5093911;27;19923;-75
2023/12/06 00:21:59;;;;;;;;;;;2.50;99.90;;;;;;5113819;27;19927;-75
2023/12/06 00:24:25;;;;;;;;;;;2.50;99.90;;;;;;5091869;27;19970;-74
2023/12/06 00:26:50;;;;;;;;;;;3.30;99.90;;;;;;5099118;27;20010;-75
2023/12/06 00:29:16;;;;;;;;;;;3.00;99.90;;;;;;5109145;27;20440;-75
2023/12/06 00:31:42;;;;;;;;;;;2.50;99.90;;;;;;5115559;27;19931;-75
2023/12/06 00:34:08;;;;;;;;;;;2.60;99.90;;;;;;5097892;27;19939;-75
2023/12/06 00:36:33;;;;;;;;;;;2.40;99.90;;;;;;5111593;27;19931;-75
2023/12/06 00:38:59;;;;;;;;;;;2.60;99.90;;;;;;5111267;27;19975;-75
2023/12/06 00:41:25;;;;;;;;;;;2.60;99.90;;;;;;5111784;27;20464;-75
2023/12/06 00:43:51;;;;;;;;;;;2.60;99.90;;;;;;5129285;27;19923;-75
2023/12/06 00:46:17;;;;;;;;;;;2.60;99.90;;;;;;5100187;27;19927;-75
2023/12/06 00:48:43;;;;;;;;;;;2.60;99.90;;;;;;5094934;27;19961;-75
2023/12/06 00:51:09;;;;;;;;;;;3.20;99.90;;;;;;5111629;27;22222;-75
2023/12/06 00:53:34;;;;;;;;;;;3.00;99.90;;;;;;5110250;27;19934;-75
2023/12/06 00:56:00;;;;;;;;;;;2.60;99.90;;;;;;5098522;27;19923;-75
2023/12/06 00:58:26;;;;;;;;;;;2.60;99.90;;;;;;5115256;27;19927;-75
2023/12/06 01:00:51;;;;;;;;;;;2.80;99.90;;;;;;5093104;27;19927;-75
2023/12/06 01:03:17;;;;;;;;;;;3.20;99.90;;;;;;5113050;27;19927;-76
2023/12/06 01:05:43;;;;;;;;;;;2.70;99.90;;;;;;5094066;27;19927;-75
2023/12/06 01:08:08;;;;;;;;;;;2.70;99.90;;;;;;5100578;27;19931;-75
2023/12/06 01:10:34;;;;;;;;;;;2.70;99.90;;;;;;5114639;27;19923;-75
2023/12/06 01:13:00;;;;;;;;;;;2.70;99.90;;;;;;5112094;27;19919;-76
2023/12/06 01:15:25;;;;;;;;;;;2.70;99.90;;;;;;5113948;27;19958;-76
2023/12/06 01:17:51;;;;;;;;;;;3.00;99.90;;;;;;5105180;27;19931;-75
2023/12/06 01:20:17;;;;;;;;;;;2.70;99.90;;;;;;5113079;27;19945;-75
2023/12/06 01:22:48;;;;;;;;;;;2.80;99.90;;;;;;5110031;27;20309;-75
2023/12/06 01:25:14;;;;;;;;;;;2.80;99.90;;;;;;5117428;27;19931;-75
2023/12/06 01:27:39;;;;;;;;;;;2.80;99.90;;;;;;5113204;27;19961;-75
2023/12/06 01:30:05;;;;;;;;;;;2.80;99.90;;;;;;5108488;27;19927;-76
2023/12/06 01:32:31;;;;;;;;;;;2.80;99.90;;;;;;5101579;27;19934;-75
2023/12/06 01:34:56;;;;;;;;;;;2.80;99.90;;;;;;5106191;27;19971;-75
2023/12/06 01:37:22;;;;;;;;;;;2.80;99.90;;;;;;5097735;27;19972;-75
2023/12/06 01:39:47;;;;;;;;;;;2.80;99.90;;;;;;5111774;27;19931;-76
2023/12/06 01:42:13;;;;;;;;;;;3.60;99.90;;;;;;5096556;27;19940;-75
2023/12/06 01:44:39;;;;;;;;;;;2.80;99.90;;;;;;5100987;27;20479;-75
2023/12/06 01:47:05;;;;;;;;;;;3.40;99.90;;;;;;5109640;27;19925;-76
2023/12/06 01:49:31;;;;;;;;;;;2.80;99.90;;;;;;5113913;27;19970;-75
2023/12/06 01:51:56;;;;;;;;;;;2.80;99.90;;;;;;5109824;27;20006;-76
2023/12/06 01:54:22;;;;;;;;;;;2.80;99.90;;;;;;5083285;27;19927;-75
2023/12/06 01:56:48;;;;;;;;;;;2.80;99.90;;;;;;5112343;27;19975;-75
2023/12/06 01:59:13;;;;;;;;;;;3.90;99.90;;;;;;5095375;27;19927;-75
2023/12/06 02:01:39;;;;;;;;;;;2.90;99.90;;;;;;5098515;27;19928;-76
2023/12/06 02:04:05;;;;;;;;;;;2.90;99.90;;;;;;5080740;27;20387;-75
2023/12/06 02:06:31;;;;;;;;;;;2.90;99.90;;;;;;5111270;27;19927;-76
2023/12/06 02:08:57;;;;;;;;;;;3.20;99.90;;;;;;5105593;27;20018;-76
2023/12/06 02:11:23;;;;;;;;;;;2.90;99.90;;;;;;5111437;27;19934;-75
2023/12/06 02:13:49;;;;;;;;;;;2.90;99.90;;;;;;5112181;27;19923;-76
2023/12/06 02:16:15;;;;;;;;;;;2.90;99.90;;;;;;5106848;27;20490;-76
2023/12/06 02:18:40;;;;;;;;;;;2.90;99.90;;;;;;5096049;27;19931;-75
2023/12/06 02:21:06;;;;;;;;;;;2.90;99.90;;;;;;5096286;27;19983;-76
2023/12/06 02:23:36;;;;;;;;;;;2.90;99.90;;;;;;5096622;27;19931;-76
2023/12/06 02:26:02;;;;;;;;;;;2.90;99.90;;;;;;5111212;27;19929;-76
2023/12/06 02:28:27;;;;;;;;;;;2.90;99.90;;;;;;5113724;27;20391;-76
2023/12/06 02:30:53;;;;;;;;;;;2.90;99.90;;;;;;5108079;27;19934;-76
2023/12/06 02:33:18;;;;;;;;;;;3.00;99.90;;;;;;5105661;27;19931;-76
2023/12/06 02:35:48;;;;;;;;;;;3.30;99.90;;;;;;5128830;27;19927;-76
2023/12/06 02:38:16;;;;;;;;;;;3.00;99.90;;;;;;5107905;27;19927;-76
2023/12/06 02:40:43;;;;;;;;;;;3.00;99.90;;;;;;5093722;27;19927;-76
2023/12/06 02:43:09;;;;;;;;;;;4.20;99.90;;;;;;5109221;27;19976;-76
2023/12/06 02:45:35;;;;;;;;;;;3.60;99.90;;;;;;5108759;27;20374;-76
2023/12/06 02:48:04;;;;;;;;;;;3.00;99.90;;;;;;5105713;27;19978;-76
2023/12/06 02:50:29;;;;;;;;;;;3.10;99.90;;;;;;5108792;27;19927;-76
2023/12/06 02:52:55;;;;;;;;;;;3.10;99.90;;;;;;5109075;27;20220;-76
2023/12/06 02:55:21;;;;;;;;;;;3.00;99.90;;;;;;5093994;27;19931;-76
2023/12/06 02:57:46;;;;;;;;;;;3.10;99.90;;;;;;5128165;27;20297;-76
2023/12/06 03:00:12;;;;;;;;;;;3.10;99.90;;;;;;5104439;27;20343;-76
2023/12/06 03:02:38;;;;;;;;;;;3.10;99.90;;;;;;5106132;27;19927;-76
2023/12/06 03:05:03;;;;;;;;;;;3.10;99.90;;;;;;5105294;27;19927;-76
2023/12/06 03:07:29;;;;;;;;;;;3.10;99.90;;;;;;5107813;27;20075;-76
2023/12/06 03:09:55;;;;;;;;;;;3.10;99.90;;;;;;5113245;27;20458;-75
2023/12/06 03:12:21;;;;;;;;;;;3.10;99.90;;;;;;5108398;27;19962;-76
2023/12/06 03:14:46;;;;;;;;;;;3.20;99.90;;;;;;5111220;27;20330;-76
2023/12/06 03:17:12;;;;;;;;;;;3.20;99.90;;;;;;5109029;27;19931;-76
2023/12/06 03:19:45;;;;;;;;;;;3.20;99.90;;;;;;5114811;27;21375;-75
2023/12/06 03:22:14;;;;;;;;;;;3.20;99.90;;;;;;5125412;27;20038;-76
2023/12/06 03:24:40;;;;;;;;;;;3.20;99.90;;;;;;5094160;27;19948;-76
2023/12/06 03:27:05;;;;;;;;;;;3.30;99.90;;;;;;5106736;27;20011;-76
2023/12/06 03:29:31;;;;;;;;;;;3.20;99.90;;;;;;5110569;27;19954;-76
2023/12/06 03:31:56;;;;;;;;;;;3.30;99.90;;;;;;5092164;27;19928;-76
2023/12/06 03:34:22;;;;;;;;;;;3.30;99.90;;;;;;5106468;27;19931;-76
2023/12/06 03:36:48;;;;;;;;;;;3.30;99.90;;;;;;5113001;27;20034;-77
2023/12/06 03:39:13;;;;;;;;;;;4.40;99.90;;;;;;5110452;27;19927;-76
2023/12/06 03:41:39;;;;;;;;;;;3.80;99.90;;;;;;5092242;27;19923;-76
2023/12/06 03:44:04;;;;;;;;;;;3.40;99.90;;;;;;5107252;27;20244;-76
2023/12/06 03:46:30;;;;;;;;;;;3.30;99.90;;;;;;5104300;27;19934;-76
2023/12/06 03:48:56;;;;;;;;;;;3.40;99.90;;;;;;5113443;27;20326;-76
2023/12/06 03:51:21;;;;;;;;;;;3.40;99.90;;;;;;5110326;27;20038;-76
2023/12/06 03:53:47;;;;;;;;;;;3.30;99.90;;;;;;5089643;27;20443;-76
2023/12/06 03:56:13;;;;;;;;;;;3.40;99.90;;;;;;5108359;27;20814;-76
2023/12/06 03:58:39;;;;;;;;;;;3.40;99.90;;;;;;5109192;27;20365;-76
2023/12/06 04:01:04;;;;;;;;;;;3.80;99.90;;;;;;5107871;27;19934;-76
2023/12/06 04:03:30;;;;;;;;;;;3.40;99.90;;;;;;5110903;27;19959;-77
2023/12/06 04:05:55;;;;;;;;;;;3.40;99.90;;;;;;5104957;27;19930;-75
2023/12/06 04:08:21;;;;;;;;;;;4.30;99.90;;;;;;5108712;27;19931;-76
2023/12/06 04:10:47;;;;;;;;;;;3.40;99.90;;;;;;5096742;27;20579;-76
2023/12/06 04:13:12;;;;;;;;;;;3.40;99.90;;;;;;5086646;27;19938;-76
2023/12/06 04:15:38;;;;;;;;;;;3.40;99.90;;;;;;5105692;27;19966;-76
2023/12/06 04:18:04;;;;;;;;;;;3.40;99.90;;;;;;5108035;27;20046;-77
2023/12/06 04:20:29;;;;;;;;;;;3.40;99.90;;;;;;5101005;27;20602;-76
2023/12/06 04:22:55;;;;;;;;;;;3.40;99.90;;;;;;5109018;27;19941;-76
2023/12/06 04:25:21;;;;;;;;;;;3.40;99.90;;;;;;5116321;27;19951;-76
2023/12/06 04:27:46;;;;;;;;;;;3.40;99.90;;;;;;5128524;27;20350;-76
2023/12/06 04:30:14;;;;;;;;;;;3.90;99.90;;;;;;5102201;27;19935;-77
2023/12/06 04:32:40;;;;;;;;;;;4.30;99.90;;;;;;5109401;27;19977;-76
2023/12/06 04:35:06;;;;;;;;;;;3.40;99.90;;;;;;5099404;27;19931;-77
2023/12/06 04:37:31;;;;;;;;;;;3.40;99.90;;;;;;5094962;27;19932;-76
2023/12/06 04:39:57;;;;;;;;;;;3.40;99.90;;;;;;5110418;27;19927;-76
2023/12/06 04:42:23;;;;;;;;;;;3.70;99.90;;;;;;5097659;27;19931;-76
2023/12/06 04:44:48;;;;;;;;;;;3.50;99.90;;;;;;5080093;27;20014;-76
2023/12/06 04:47:14;;;;;;;;;;;3.60;99.90;;;;;;5097688;27;19951;-75
2023/12/06 04:49:40;;;;;;;;;;;3.50;99.90;;;;;;5081395;27;19964;-76
2023/12/06 04:52:05;;;;;;;;;;;3.50;99.90;;;;;;5112888;27;20035;-77
2023/12/06 04:54:31;;;;;;;;;;;4.00;99.90;;;;;;5112823;27;19923;-77
2023/12/06 04:56:58;;;;;;;;;;;3.50;99.90;;;;;;5114021;27;19931;-76
2023/12/06 04:59:24;;;;;;;;;;;3.50;99.90;;;;;;5111658;27;19927;-76
2023/12/06 05:01:50;;;;;;;;;;;3.50;99.90;;;;;;5111512;27;19930;-76
2023/12/06 05:04:15;;;;;;;;;;;3.50;99.90;;;;;;5111752;27;19968;-76
2023/12/06 05:06:41;;;;;;;;;;;3.70;99.90;;;;;;5093902;27;19931;-77
2023/12/06 05:09:07;;;;;;;;;;;3.50;99.90;;;;;;5110870;27;19970;-76
2023/12/06 05:11:33;;;;;;;;;;;3.60;99.90;;;;;;5114825;27;20399;-76
2023/12/06 05:13:59;;;;;;;;;;;3.50;99.90;;;;;;5108724;27;20098;-77
2023/12/06 05:16:24;;;;;;;;;;;3.60;99.90;;;;;;5106339;27;20727;-77
2023/12/06 05:18:50;;;;;;;;;;;3.60;99.90;;;;;;5111304;27;20017;-77
2023/12/06 05:21:16;;;;;;;;;;;3.60;99.90;;;;;;5108716;27;20289;-76
2023/12/06 05:23:41;;;;;;;;;;;3.50;99.90;;;;;;5102015;27;20727;-76
2023/12/06 05:26:07;;;;;;;;;;;3.60;99.90;;;;;;5123958;27;19931;-76
2023/12/06 05:28:32;;;;;;;;;;;3.60;99.90;;;;;;5114449;27;19927;-76
2023/12/06 05:30:58;;;;;;;;;;;3.60;99.90;;;;;;5113903;27;19942;-76
2023/12/06 05:33:24;;;;;;;;;;;3.60;99.90;;;;;;5111797;27;20417;-75
2023/12/06 05:35:49;;;;;;;;;;;3.50;99.90;;;;;;5106814;27;19931;-75
2023/12/06 05:38:15;;;;;;;;;;;3.60;99.90;;;;;;5109937;27;19934;-76
2023/12/06 05:40:41;;;;;;;;;;;3.90;99.90;;;;;;5122981;27;19927;-75
2023/12/06 05:43:07;;;;;;;;;;;3.50;99.90;;;;;;5082894;27;20827;-76
2023/12/06 05:45:32;;;;;;;;;;;3.50;99.90;;;;;;5097581;27;20397;-75
2023/12/06 05:47:58;;;;;;;;;;;3.50;99.90;;;;;;5107754;27;20050;-76
2023/12/06 05:50:23;;;;;;;;;;;3.50;99.90;;;;;;5107514;27;20327;-76
2023/12/06 05:52:49;;;;;;;;;;;3.50;99.90;;;;;;5088363;27;19928;-76
2023/12/06 05:55:16;;;;;;;;;;;3.50;99.90;;;;;;5111886;27;19928;-75
2023/12/06 05:57:42;;;;;;;;;;;3.50;99.90;;;;;;5107152;27;19937;-76
2023/12/06 06:00:12;;;;;;;;;;;5.10;99.90;;;;;;5108445;27;19927;-77
2023/12/06 06:02:41;;;;;;;;;;;3.50;99.90;;;;;;5105788;27;19937;-75
2023/12/06 06:05:08;;;;;;;;;;;3.50;99.90;;;;;;5108997;27;19927;-76
2023/12/06 06:07:33;;;;;;;;;;;3.50;99.90;;;;;;5106289;27;20038;-75
2023/12/06 06:09:59;;;;;;;;;;;3.50;99.90;;;;;;5078597;27;20416;-75
2023/12/06 06:12:24;;;;;;;;;;;3.80;99.90;;;;;;5110643;27;19928;-76
2023/12/06 06:14:50;;;;;;;;;;;3.50;99.90;;;;;;5109583;27;19939;-75
2023/12/06 06:17:16;;;;;;;;;;;3.60;99.90;;;;;;5106715;27;20373;-76
2023/12/06 06:19:42;;;;;;;;;;;3.50;99.90;;;;;;5107760;27;20289;-76
2023/12/06 06:22:07;;;;;;;;;;;3.60;99.90;;;;;;5108254;27;19923;-76
2023/12/06 06:24:34;;;;;;;;;;;3.60;99.90;;;;;;5108703;27;19927;-76
2023/12/06 06:27:01;;;;;;;;;;;3.60;99.90;;;;;;5098209;27;19927;-76
2023/12/06 06:29:27;;;;;;;;;;;3.60;99.90;;;;;;5112079;27;19935;-75
2023/12/06 06:31:53;;;;;;;;;;;3.60;99.90;;;;;;5106064;27;20358;-76
2023/12/06 06:34:18;;;;;;;;;;;3.60;99.90;;;;;;5082067;27;19949;-75
2023/12/06 06:36:44;;;;;;;;;;;3.60;99.90;;;;;;5106478;27;19980;-76
2023/12/06 06:39:12;;;;;;;;;;;3.60;99.90;;;;;;5095198;27;19931;-76
2023/12/06 06:41:37;;;;;;;;;;;3.60;99.90;;;;;;5096210;27;19927;-76
2023/12/06 06:44:03;;;;;;;;;;;3.60;99.90;;;;;;5112272;27;19919;-75
2023/12/06 06:46:28;;;;;;;;;;;3.60;99.90;;;;;;5089390;27;19957;-76
2023/12/06 06:48:54;;;;;;;;;;;3.60;99.90;;;;;;5112735;27;19991;-75
2023/12/06 06:51:20;;;;;;;;;;;3.60;99.90;;;;;;5093156;27;20317;-76
2023/12/06 06:53:45;;;;;;;;;;;3.60;99.90;;;;;;5103178;27;20406;-76
2023/12/06 06:56:11;;;;;;;;;;;3.60;99.90;;;;;;5078362;27;20424;-75
2023/12/06 06:58:37;;;;;;;;;;;3.60;99.90;;;;;;5094734;27;19927;-76
2023/12/06 07:01:02;;;;;;;;;;;4.00;99.90;;;;;;5093287;27;20282;-76
2023/12/06 07:03:28;;;;;;;;;;;3.60;99.90;;;;;;5113228;27;20000;-74
2023/12/06 07:05:54;;;;;;;;;;;3.60;99.90;;;;;;5106316;27;19927;-75
2023/12/06 07:08:19;;;;;;;;;;;3.60;99.90;;;;;;5107520;27;20645;-75
2023/12/06 07:10:47;;;;;;;;;;;3.60;99.90;;;;;;5107302;27;19924;-75
2023/12/06 07:13:13;;;;;;;;;;;3.60;99.90;;;;;;5092844;27;20364;-75
2023/12/06 07:15:38;;;;;;;;;;;3.60;99.90;;;;;;5100766;27;19927;-75
2023/12/06 07:18:04;;;;;;;;;;;3.80;99.90;;;;;;5107418;27;19994;-76
2023/12/06 07:20:30;;;;;;;;;;;3.70;99.90;;;;;;5116266;27;20240;-75
2023/12/06 07:22:57;;;;;;;;;;;3.70;99.90;;;;;;5086219;27;19930;-75
2023/12/06 07:25:22;;;;;;;;;;;3.70;99.90;;;;;;5115702;27;20000;-75
2023/12/06 07:27:48;;;;;;;;;;;3.70;99.90;;;;;;5127565;27;19923;-75
2023/12/06 07:30:15;;;;;;;;;;;3.80;99.90;;;;;;5107590;27;20430;-75
2023/12/06 07:32:40;;;;;;;;;;;3.70;99.90;;;;;;5103142;27;20433;-75
2023/12/06 07:35:07;;;;;;;;;;;3.70;99.90;;;;;;5106114;27;19933;-75
2023/12/06 07:37:33;;;;;;;;;;;3.70;99.90;;;;;;5107545;27;19933;-74
2023/12/06 07:39:59;;;;;;;;;;;3.70;99.90;;;;;;5097266;27;20332;-75
2023/12/06 07:42:24;;;;;;;;;;;3.70;99.90;;;;;;5097332;27;20679;-74
2023/12/06 07:44:50;;;;;;;;;;;3.70;99.90;;;;;;5109795;27;19923;-74
2023/12/06 07:47:16;;;;;;;;;;;3.70;99.90;;;;;;5100100;27;19974;-75
2023/12/06 07:49:41;;;;;;;;;;;3.80;99.90;;;;;;5091476;27;19930;-74
2023/12/06 07:52:07;;;;;;;;;;;4.10;99.90;;;;;;5110028;27;20384;-75
2023/12/06 07:54:33;;;;;;;;;;;3.80;99.90;;;;;;5099024;27;19927;-75
2023/12/06 07:56:59;;;;;;;;;;;3.90;99.90;;;;;;5116522;27;19970;-75
2023/12/06 07:59:24;;;;;;;;;;;3.90;99.90;;;;;;5103434;27;19934;-75
2023/12/06 08:01:50;;;;;;;;;;;4.20;99.90;;;;;;5102063;27;20460;-75
2023/12/06 08:04:15;;;;;;;;;;;3.90;99.90;;;;;;5113193;27;19927;-74
2023/12/06 08:06:41;;;;;;;;;;;4.00;99.90;;;;;;5113712;27;19966;-74
2023/12/06 08:09:12;;;;;;;;;;;3.90;99.90;;;;;;5121045;27;20252;-75
2023/12/06 08:11:41;;;;;;;;;;;3.90;99.90;;;;;;5098295;27;19977;-74
2023/12/06 08:14:07;;;;;;;;;;;3.90;99.90;;;;;;5114699;27;19927;-75
2023/12/06 08:16:32;;;;;;;;;;;3.90;99.90;;;;;;5105816;27;20384;-74
2023/12/06 08:18:58;;;;;;;;;;;3.90;99.90;;;;;;5112539;27;19927;-74
2023/12/06 08:21:24;;;;;;;;;;;3.80;99.90;;;;;;5099137;27;20487;-75
2023/12/06 08:23:50;;;;;;;;;;;3.80;99.90;;;;;;5114783;27;19935;-74
2023/12/06 08:26:16;;;;;;;;;;;4.10;99.90;;;;;;5099856;27;20381;-75
2023/12/06 08:28:42;;;;;;;;;;;4.00;99.90;;;;;;5117928;27;19974;-74
2023/12/06 08:31:10;;;;;;;;;;;4.10;99.90;;;;;;5103345;27;20019;-74
2023/12/06 08:33:36;;;;;;;;;;;3.70;99.90;;;;;;5099598;27;20727;-75
2023/12/06 08:36:02;;;;;;;;;;;3.80;99.90;;;;;;5102852;27;19919;-75
2023/12/06 08:38:28;;;;;;;;;;;3.70;99.90;;;;;;5091901;27;19973;-75
2023/12/06 08:40:54;;;;;;;;;;;3.70;99.90;;;;;;5127324;27;20583;-74
2023/12/06 08:43:19;;;;;;;;;;;4.90;99.90;;;;;;5081200;27;19927;-74
2023/12/06 08:45:45;;;;;;;;;;;3.70;99.90;;;;;;5099191;27;19925;-75
2023/12/06 08:48:11;;;;;;;;;;;3.70;99.90;;;;;;5114705;27;19919;-75
2023/12/06 08:50:37;;;;;;;;;;;3.70;99.90;;;;;;5106416;27;20038;-75
2023/12/06 08:53:03;;;;;;;;;;;3.70;99.90;;;;;;5080990;27;19932;-75
2023/12/06 08:55:28;;;;;;;;;;;3.70;99.90;;;;;;5095020;27;19935;-75
2023/12/06 08:57:54;;;;;;;;;;;3.70;99.90;;;;;;5114501;27;20119;-74
2023/12/06 09:00:20;;;;;;;;;;;3.70;99.90;;;;;;5107106;27;20407;-75
2023/12/06 09:02:45;;;;;;;;;;;3.70;99.90;;;;;;5094572;27;19927;-75
2023/12/06 09:05:11;;;;;;;;;;;3.70;99.90;;;;;;5105722;27;19943;-75
2023/12/06 09:07:40;;;;;;;;;;;3.80;99.90;;;;;;5109480;27;19934;-75
2023/12/06 09:10:07;;;;;;;;;;;3.80;99.90;;;;;;5107139;27;20380;-75
2023/12/06 09:12:33;;;;;;;;;;;3.80;99.90;;;;;;5094748;27;20769;-75
2023/12/06 09:14:59;;;;;;;;;;;4.10;99.90;;;;;;5108452;27;19934;-76
2023/12/06 09:17:24;;;;;;;;;;;3.80;99.90;;;;;;5092382;27;19930;-74
2023/12/06 09:19:51;;;;;;;;;;;3.80;99.90;;;;;;5119510;27;20370;-74
2023/12/06 09:22:17;;;;;;;;;;;3.90;99.90;;;;;;5109927;27;19927;-75
2023/12/06 09:24:47;;;;;;;;;;;4.00;99.90;;;;;;5107088;27;20397;-75
2023/12/06 09:27:12;;;;;;;;;;;3.90;99.90;;;;;;5111220;27;20367;-76
2023/12/06 09:29:39;;;;;;;;;;;4.00;99.90;;;;;;5080204;27;19923;-75
2023/12/06 09:32:05;;;;;;;;;;;4.00;99.90;;;;;;5114606;27;19929;-76
2023/12/06 09:34:31;;;;;;;;;;;4.10;99.90;;;;;;5104276;27;19927;-76
2023/12/06 09:36:56;;;;;;;;;;;4.10;99.90;;;;;;5110398;27;20327;-75
2023/12/06 09:39:22;;;;;;;;;;;4.00;99.90;;;;;;5094654;27;19931;-75
2023/12/06 09:41:48;;;;;;;;;;;4.10;99.90;;;;;;5117103;27;19927;-76
2023/12/06 09:44:17;;;;;;;;;;;4.10;99.90;;;;;;5112008;27;19975;-76
2023/12/06 09:46:43;;;;;;;;;;;4.10;99.90;;;;;;5111253;27;19937;-76
2023/12/06 09:49:09;;;;;;;;;;;4.10;99.90;;;;;;5133135;27;19919;-76
2023/12/06 09:51:35;;;;;;;;;;;6.00;99.90;;;;;;5118104;27;20455;-75
2023/12/06 09:54:00;;;;;;;;;;;4.10;99.90;;;;;;5093766;27;19983;-75
2023/12/06 09:56:26;;;;;;;;;;;4.40;99.90;;;;;;5111355;27;19976;-75
2023/12/06 09:58:52;;;;;;;;;;;4.10;99.90;;;;;;5097446;27;20277;-75
2023/12/06 10:01:17;;;;;;;;;;;4.10;99.90;;;;;;5107338;27;19931;-75
2023/12/06 10:03:43;;;;;;;;;;;4.10;99.90;;;;;;5112681;27;19967;-75
2023/12/06 10:06:09;;;;;;;;;;;4.20;99.90;;;;;;5110322;27;20018;-74
2023/12/06 10:08:35;;;;;;;;;;;4.30;99.90;;;;;;5092824;27;19952;-75
2023/12/06 10:11:05;;;;;;;;;;;4.20;99.90;;;;;;5106259;27;19927;-74
2023/12/06 10:13:31;;;;;;;;;;;4.20;99.90;;;;;;5095181;27;19992;-75
2023/12/06 10:15:57;;;;;;;;;;;4.70;99.90;;;;;;5133921;27;20433;-75
2023/12/06 10:18:23;;;;;;;;;;;4.50;99.90;;;;;;5129952;27;19935;-74
2023/12/06 10:20:48;;;;;;;;;;;4.20;99.90;;;;;;5100147;27;19983;-75
2023/12/06 10:23:14;;;;;;;;;;;4.20;99.90;;;;;;5117668;27;19927;-74
2023/12/06 10:25:39;;;;;;;;;;;4.20;99.90;;;;;;5118209;27;20282;-74
2023/12/06 10:28:05;;;;;;;;;;;4.30;99.90;;;;;;5110612;27;19942;-75
2023/12/06 10:30:31;;;;;;;;;;;4.30;99.90;;;;;;5094352;27;19934;-75
2023/12/06 10:32:58;;;;;;;;;;;4.30;99.90;;;;;;5108525;27;19943;-76
2023/12/06 10:35:25;;;;;;;;;;;4.30;99.90;;;;;;5106992;27;20321;-75
2023/12/06 10:37:50;;;;;;;;;;;4.30;99.90;;;;;;5105907;27;19966;-75
2023/12/06 10:40:16;;;;;;;;;;;4.30;99.90;;;;;;5087120;27;20354;-75
2023/12/06 10:42:45;;;;;;;;;;;4.30;99.90;;;;;;5097257;27;19931;-75
2023/12/06 10:45:11;;;;;;;;;;;4.30;99.90;;;;;;5113569;27;19983;-75
2023/12/06 10:47:39;;;;;;;;;;;4.50;99.90;;;;;;5110427;27;19997;-75
2023/12/06 10:50:05;;;;;;;;;;;4.40;99.90;;;;;;5111962;27;19938;-75
2023/12/06 10:52:32;;;;;;;;;;;4.40;99.90;;;;;;5093602;27;19931;-75
2023/12/06 10:54:58;;;;;;;;;;;4.40;99.90;;;;;;5108400;27;19962;-75
2023/12/06 10:57:25;;;;;;;;;;;4.40;99.90;;;;;;5120399;27;20377;-76
2023/12/06 10:59:51;;;;;;;;;;;4.40;99.90;;;;;;5111162;27;20610;-75
2023/12/06 11:02:17;;;;;;;;;;;4.40;99.90;;;;;;5102559;27;20003;-74
2023/12/06 11:04:47;;;;;;;;;;;4.90;99.90;;;;;;5095512;27;20366;-74
2023/12/06 11:07:15;;;;;;;;;;;4.40;99.90;;;;;;5123191;27;19980;-75
2023/12/06 11:09:47;;;;;;;;;;;4.40;99.90;;;;;;5105879;27;20507;-74
2023/12/06 11:12:14;;;;;;;;;;;4.40;99.90;;;;;;5125197;27;19934;-75
2023/12/06 11:14:49;;;;;;;;;;;4.40;99.90;;;;;;5102293;27;19931;-75
2023/12/06 11:17:33;;;;;;;;;;;4.50;99.90;;;;;;5108556;27;20045;-75
2023/12/06 11:19:59;;;;;;;;;;;4.50;99.90;;;;;;5127547;27;19938;-75
2023/12/06 11:22:25;;;;;;;;;;;4.50;99.90;;;;;;5112960;27;20388;-75
2023/12/06 11:24:51;;;;;;;;;;;4.60;99.90;;;;;;5114661;27;20595;-75
2023/12/06 11:27:19;;;;;;;;;;;4.70;99.90;;;;;;5114540;27;19919;-75
2023/12/06 11:29:44;;;;;;;;;;;4.70;99.90;;;;;;5111124;27;19923;-75
2023/12/06 11:32:13;;;;;;;;;;;4.70;99.90;;;;;;5111883;27;20284;-76
2023/12/06 11:34:40;;;;;;;;;;;4.70;99.90;;;;;;5105765;27;19927;-75
2023/12/06 11:37:14;;;;;;;;;;;4.70;99.90;;;;;;5110936;27;20432;-75
2023/12/06 11:39:40;;;;;;;;;;;4.70;99.90;;;;;;5106361;27;19938;-75
2023/12/06 11:42:08;;;;;;;;;;;4.80;99.90;;;;;;5108349;27;19939;-74
2023/12/06 11:44:34;;;;;;;;;;;4.90;99.90;;;;;;5097482;27;20260;-75
2023/12/06 11:47:06;;;;;;;;;;;4.90;99.90;;;;;;5106836;27;19927;-75
2023/12/06 11:49:32;;;;;;;;;;;5.00;99.90;;;;;;5109393;27;19927;-75
2023/12/06 11:52:01;;;;;;;;;;;5.00;99.90;;;;;;5076624;27;20071;-75
2023/12/06 11:54:27;;;;;;;;;;;5.00;99.90;;;;;;5116539;27;19923;-76
2023/12/06 11:57:04;;;;;;;;;;;5.10;99.90;;;;;;5111991;27;20373;-74
2023/12/06 11:59:30;;;;;;;;;;;5.10;99.90;;;;;;5089793;27;19927;-75
2023/12/06 12:01:56;;;;;;;;;;;5.10;99.90;;;;;;5104641;27;20476;-75
2023/12/06 12:04:22;;;;;;;;;;;5.20;99.90;;;;;;5127131;27;19970;-75
2023/12/06 12:06:48;;;;;;;;;;;5.20;99.90;;;;;;5110798;27;19935;-75
2023/12/06 12:09:14;;;;;;;;;;;5.20;99.90;;;;;;5092124;27;19927;-75
2023/12/06 12:11:42;;;;;;;;;;;5.30;99.90;;;;;;5110451;27;19931;-75
2023/12/06 12:14:08;;;;;;;;;;;5.40;99.90;;;;;;5103884;27;19927;-75
2023/12/06 12:16:34;;;;;;;;;;;5.30;99.90;;;;;;5106031;27;19927;-76
2023/12/06 12:19:03;;;;;;;;;;;5.40;99.90;;;;;;5089403;27;19965;-76
2023/12/06 12:21:29;;;;;;;;;;;5.40;99.90;;;;;;5108642;27;19931;-76
2023/12/06 12:24:02;;;;;;;;;;;5.40;99.90;;;;;;5106073;27;19927;-75
2023/12/06 12:26:28;;;;;;;;;;;5.40;99.90;;;;;;5105883;27;19995;-75
2023/12/06 12:28:54;;;;;;;;;;;5.60;99.90;;;;;;5109388;27;19962;-74
2023/12/06 12:31:23;;;;;;;;;;;5.40;99.90;;;;;;5126563;27;19927;-74
2023/12/06 12:33:49;;;;;;;;;;;5.40;99.90;;;;;;5089416;27;19930;-76
2023/12/06 12:36:16;;;;;;;;;;;5.40;99.90;;;;;;5085664;27;20467;-75
2023/12/06 12:38:43;;;;;;;;;;;5.40;99.90;;;;;;5108037;27;19934;-75
2023/12/06 12:41:09;;;;;;;;;;;5.70;99.90;;;;;;5110483;27;19931;-74
2023/12/06 12:43:35;;;;;;;;;;;5.30;99.90;;;;;;5094985;27;21012;-74
2023/12/06 12:46:02;;;;;;;;;;;5.30;99.90;;;;;;5093034;27;20336;-75
2023/12/06 12:48:28;;;;;;;;;;;5.20;99.90;;;;;;5106251;27;19927;-76
2023/12/06 12:51:13;;;;;;;;;;;5.30;99.90;;;;;;5104639;27;20282;-75
2023/12/06 12:53:44;;;;;;;;;;;5.20;99.90;;;;;;5108254;27;20609;-76
2023/12/06 12:56:14;;;;;;;;;;;5.10;99.90;;;;;;5120184;27;20093;-75
2023/12/06 12:58:39;;;;;;;;;;;5.00;99.90;;;;;;5108340;27;20006;-75
2023/12/06 13:01:07;;;;;;;;;;;5.00;99.90;;;;;;5092026;27;19927;-76
2023/12/06 13:03:33;;;;;;;;;;;5.00;99.90;;;;;;5106293;27;19923;-76
2023/12/06 13:06:03;;;;;;;;;;;5.00;99.90;;;;;;5105565;27;19927;-76
2023/12/06 13:08:33;;;;;;;;;;;5.00;99.90;;;;;;5093010;27;19931;-75
2023/12/06 13:10:59;;;;;;;;;;;5.00;99.90;;;;;;5117690;27;19927;-74
2023/12/06 13:13:28;;;;;;;;;;;5.00;99.90;;;;;;5096003;27;19927;-75
2023/12/06 13:15:56;;;;;;;;;;;5.00;99.90;;;;;;5104481;27;19924;-76
2023/12/06 13:18:23;;;;;;;;;;;5.00;99.90;;;;;;5092386;27;19935;-75
2023/12/06 13:20:48;;;;;;;;;;;5.00;99.90;;;;;;5111528;27;20381;-76
2023/12/06 13:23:14;;;;;;;;;;;5.00;99.90;;;;;;5072297;27;19923;-75
2023/12/06 13:25:40;;;;;;;;;;;5.00;99.90;;;;;;5098764;27;19974;-75
2023/12/06 13:28:06;;;;;;;;;;;5.00;99.90;;;;;;5098180;27;19969;-76
2023/12/06 13:30:31;;;;;;;;;;;5.00;99.90;;;;;;5094615;27;20453;-75
2023/12/06 13:32:57;;;;;;;;;;;5.00;99.90;;;;;;5094113;27;20652;-75
2023/12/06 13:35:24;;;;;;;;;;;5.00;99.90;;;;;;5111243;27;19927;-74
2023/12/06 13:37:51;;;;;;;;;;;5.00;99.90;;;;;;5094766;27;20537;-75
2023/12/06 13:40:17;;;;;;;;;;;5.00;99.90;;;;;;5127407;27;20477;-75
2023/12/06 13:42:42;;;;;;;;;;;5.00;99.90;;;;;;5105926;27;19928;-75
2023/12/06 13:45:09;;;;;;;;;;;5.00;99.90;;;;;;5128151;27;20540;-75
2023/12/06 13:47:34;;;;;;;;;;;5.00;99.90;;;;;;5104701;27;19932;-75
2023/12/06 13:50:00;;;;;;;;;;;5.00;99.90;;;;;;5127440;27;19935;-75
2023/12/06 13:52:25;;;;;;;;;;;5.00;99.90;;;;;;5108201;27;19937;-75
2023/12/06 13:54:51;;;;;;;;;;;4.90;99.90;;;;;;5093707;27;20376;-76
2023/12/06 13:57:17;;;;;;;;;;;4.90;99.90;;;;;;5110969;27;19967;-75
2023/12/06 13:59:42;;;;;;;;;;;4.90;99.90;;;;;;5106105;27;19927;-75
2023/12/06 14:02:08;;;;;;;;;;;4.80;99.90;;;;;;5104887;27;19934;-75
2023/12/06 14:04:34;;;;;;;;;;;4.80;99.90;;;;;;5108668;27;20058;-75
2023/12/06 14:07:00;;;;;;;;;;;4.80;99.90;;;;;;5093478;27;19934;-74
2023/12/06 14:09:30;;;;;;;;;;;4.80;99.90;;;;;;5086952;27;19923;-73
2023/12/06 14:11:56;;;;;;;;;;;4.80;99.90;;;;;;5104011;27;19923;-74
2023/12/06 14:14:22;;;;;;;;;;;4.80;99.90;;;;;;5109724;27;19934;-75
2023/12/06 14:16:48;;;;;;;;;;;4.80;99.90;;;;;;5079246;27;19935;-75
2023/12/06 14:19:13;;;;;;;;;;;4.80;99.90;;;;;;5111316;27;19956;-75
2023/12/06 14:21:40;;;;;;;;;;;4.80;99.90;;;;;;5104796;27;19919;-73
2023/12/06 14:24:06;;;;;;;;;;;4.90;99.90;;;;;;5111843;27;19934;-75